sensor_id;sensor_type;location;lat;lon;timestamp;P1;durP1;ratioP1;P2;durP2;ratioP2
63499;SDS011;49654;51.142;14.924;2022-08-21T00:00:25;22.75;;;20.63;;
63499;SDS011;49654;51.142;14.924;2022-08-21T00:02:54;21.95;;;19.85;;
63499;SDS011;49654;51.142;14.924;2022-08-21T00:05:24;21.88;;;19.77;;
63499;SDS011;49654;51.142;14.924;2022-08-21T00:07:53;22.88;;;20.67;;
63499;SDS011;49654;51.142;14.924;2022-08-21T00:10:20;21.80;;;19.63;;
63499;SDS011;49654;51.142;14.924;2022-08-21T00:12:48;22.75;;;20.48;;
63499;SDS011;49654;51.142;14.924;2022-08-21T00:15:17;23.20;;;20.80;;
63499;SDS011;49654;51.142;14.924;2022-08-21T00:17:48;23.05;;;20.67;;
63499;SDS011;49654;51.142;14.924;2022-08-21T00:20:16;21.13;;;19.00;;
63499;SDS011;49654;51.142;14.924;2022-08-21T00:22:45;20.77;;;18.55;;
63499;SDS011;49654;51.142;14.924;2022-08-21T00:25:13;20.85;;;18.85;;
63499;SDS011;49654;51.142;14.924;2022-08-21T00:27:42;19.95;;;17.98;;
63499;SDS011;49654;51.142;14.924;2022-08-21T00:30:10;21.35;;;19.35;;
63499;SDS011;49654;51.142;14.924;2022-08-21T00:32:38;21.52;;;19.33;;
63499;SDS011;49654;51.142;14.924;2022-08-21T00:35:07;22.10;;;19.80;;
63499;SDS011;49654;51.142;14.924;2022-08-21T00:37:37;21.05;;;18.95;;
63499;SDS011;49654;51.142;14.924;2022-08-21T00:40:07;23.45;;;20.95;;
63499;SDS011;49654;51.142;14.924;2022-08-21T00:42:39;21.77;;;19.50;;
63499;SDS011;49654;51.142;14.924;2022-08-21T00:45:06;23.83;;;21.45;;
63499;SDS011;49654;51.142;14.924;2022-08-21T00:47:33;24.38;;;21.95;;
63499;SDS011;49654;51.142;14.924;2022-08-21T00:50:00;23.80;;;21.30;;
63499;SDS011;49654;51.142;14.924;2022-08-21T00:52:28;25.60;;;22.90;;
63499;SDS011;49654;51.142;14.924;2022-08-21T00:54:58;25.58;;;22.98;;
63499;SDS011;49654;51.142;14.924;2022-08-21T00:57:29;25.50;;;22.85;;
63499;SDS011;49654;51.142;14.924;2022-08-21T01:00:01;27.50;;;23.70;;
63499;SDS011;49654;51.142;14.924;2022-08-21T01:02:31;27.42;;;24.63;;
63499;SDS011;49654;51.142;14.924;2022-08-21T01:04:58;28.30;;;25.30;;
63499;SDS011;49654;51.142;14.924;2022-08-21T01:07:25;26.02;;;23.25;;
63499;SDS011;49654;51.142;14.924;2022-08-21T01:09:52;28.92;;;25.95;;
63499;SDS011;49654;51.142;14.924;2022-08-21T01:12:19;28.27;;;25.23;;
63499;SDS011;49654;51.142;14.924;2022-08-21T01:14:47;29.80;;;26.70;;
63499;SDS011;49654;51.142;14.924;2022-08-21T01:17:14;32.55;;;27.27;;
63499;SDS011;49654;51.142;14.924;2022-08-21T01:19:42;30.70;;;27.40;;
63499;SDS011;49654;51.142;14.924;2022-08-21T01:22:11;29.20;;;26.05;;
63499;SDS011;49654;51.142;14.924;2022-08-21T01:24:38;29.67;;;26.48;;
63499;SDS011;49654;51.142;14.924;2022-08-21T01:27:05;32.03;;;27.60;;
63499;SDS011;49654;51.142;14.924;2022-08-21T01:29:34;31.58;;;26.73;;
63499;SDS011;49654;51.142;14.924;2022-08-21T01:32:05;29.52;;;26.40;;
63499;SDS011;49654;51.142;14.924;2022-08-21T01:34:35;31.30;;;27.33;;
63499;SDS011;49654;51.142;14.924;2022-08-21T01:37:04;30.33;;;26.50;;
63499;SDS011;49654;51.142;14.924;2022-08-21T01:39:33;29.50;;;25.02;;
63499;SDS011;49654;51.142;14.924;2022-08-21T01:42:01;30.05;;;26.85;;
63499;SDS011;49654;51.142;14.924;2022-08-21T01:44:29;32.58;;;26.80;;
63499;SDS011;49654;51.142;14.924;2022-08-21T01:46:57;33.05;;;28.75;;
63499;SDS011;49654;51.142;14.924;2022-08-21T01:49:26;31.25;;;27.65;;
63499;SDS011;49654;51.142;14.924;2022-08-21T01:51:53;30.30;;;26.92;;
63499;SDS011;49654;51.142;14.924;2022-08-21T01:54:20;31.95;;;28.38;;
63499;SDS011;49654;51.142;14.924;2022-08-21T01:56:50;31.92;;;28.45;;
63499;SDS011;49654;51.142;14.924;2022-08-21T01:59:19;32.35;;;28.05;;
63499;SDS011;49654;51.142;14.924;2022-08-21T02:01:48;32.88;;;27.42;;
63499;SDS011;49654;51.142;14.924;2022-08-21T02:04:14;29.65;;;26.48;;
63499;SDS011;49654;51.142;14.924;2022-08-21T02:06:42;30.67;;;27.38;;
63499;SDS011;49654;51.142;14.924;2022-08-21T02:09:09;31.08;;;25.60;;
63499;SDS011;49654;51.142;14.924;2022-08-21T02:11:37;30.77;;;26.52;;
63499;SDS011;49654;51.142;14.924;2022-08-21T02:14:07;28.75;;;25.40;;
63499;SDS011;49654;51.142;14.924;2022-08-21T02:16:34;28.95;;;25.63;;
63499;SDS011;49654;51.142;14.924;2022-08-21T02:19:01;28.17;;;24.80;;
63499;SDS011;49654;51.142;14.924;2022-08-21T02:21:28;24.65;;;21.98;;
63499;SDS011;49654;51.142;14.924;2022-08-21T02:23:55;24.70;;;22.10;;
63499;SDS011;49654;51.142;14.924;2022-08-21T02:26:22;25.13;;;21.65;;
63499;SDS011;49654;51.142;14.924;2022-08-21T02:28:49;23.08;;;20.63;;
63499;SDS011;49654;51.142;14.924;2022-08-21T02:31:18;25.55;;;21.40;;
63499;SDS011;49654;51.142;14.924;2022-08-21T02:33:45;24.85;;;22.23;;
63499;SDS011;49654;51.142;14.924;2022-08-21T02:36:12;26.65;;;21.83;;
63499;SDS011;49654;51.142;14.924;2022-08-21T02:38:40;25.58;;;21.98;;
63499;SDS011;49654;51.142;14.924;2022-08-21T02:41:10;24.85;;;22.05;;
63499;SDS011;49654;51.142;14.924;2022-08-21T02:43:38;25.55;;;21.70;;
63499;SDS011;49654;51.142;14.924;2022-08-21T02:46:06;25.95;;;21.85;;
63499;SDS011;49654;51.142;14.924;2022-08-21T02:48:37;30.55;;;22.55;;
63499;SDS011;49654;51.142;14.924;2022-08-21T02:51:05;24.90;;;22.17;;
63499;SDS011;49654;51.142;14.924;2022-08-21T02:53:34;26.48;;;23.35;;
63499;SDS011;49654;51.142;14.924;2022-08-21T02:56:03;26.95;;;21.80;;
63499;SDS011;49654;51.142;14.924;2022-08-21T02:58:34;28.00;;;22.42;;
63499;SDS011;49654;51.142;14.924;2022-08-21T03:01:04;23.10;;;20.70;;
63499;SDS011;49654;51.142;14.924;2022-08-21T03:03:35;22.92;;;18.88;;
63499;SDS011;49654;51.142;14.924;2022-08-21T03:06:05;22.20;;;18.80;;
63499;SDS011;49654;51.142;14.924;2022-08-21T03:08:33;20.10;;;17.98;;
63499;SDS011;49654;51.142;14.924;2022-08-21T03:11:00;17.52;;;15.73;;
63499;SDS011;49654;51.142;14.924;2022-08-21T03:13:27;17.05;;;15.23;;
63499;SDS011;49654;51.142;14.924;2022-08-21T03:15:55;17.63;;;15.45;;
63499;SDS011;49654;51.142;14.924;2022-08-21T03:18:22;16.02;;;14.32;;
63499;SDS011;49654;51.142;14.924;2022-08-21T03:20:51;17.65;;;14.60;;
63499;SDS011;49654;51.142;14.924;2022-08-21T03:23:18;18.08;;;14.50;;
63499;SDS011;49654;51.142;14.924;2022-08-21T03:25:45;16.92;;;14.82;;
63499;SDS011;49654;51.142;14.924;2022-08-21T03:28:14;15.00;;;13.40;;
63499;SDS011;49654;51.142;14.924;2022-08-21T03:30:43;15.85;;;13.55;;
63499;SDS011;49654;51.142;14.924;2022-08-21T03:33:12;15.05;;;13.50;;
63499;SDS011;49654;51.142;14.924;2022-08-21T03:35:39;15.50;;;12.73;;
63499;SDS011;49654;51.142;14.924;2022-08-21T03:38:09;15.40;;;12.77;;
63499;SDS011;49654;51.142;14.924;2022-08-21T03:40:38;16.20;;;13.75;;
63499;SDS011;49654;51.142;14.924;2022-08-21T03:43:05;15.30;;;12.82;;
63499;SDS011;49654;51.142;14.924;2022-08-21T03:45:34;14.68;;;12.55;;
63499;SDS011;49654;51.142;14.924;2022-08-21T03:48:02;14.07;;;12.48;;
63499;SDS011;49654;51.142;14.924;2022-08-21T03:50:31;16.67;;;12.57;;
63499;SDS011;49654;51.142;14.924;2022-08-21T03:53:00;13.63;;;12.23;;
63499;SDS011;49654;51.142;14.924;2022-08-21T03:55:28;13.13;;;11.68;;
63499;SDS011;49654;51.142;14.924;2022-08-21T03:57:56;13.90;;;11.98;;
63499;SDS011;49654;51.142;14.924;2022-08-21T04:00:23;13.63;;;12.05;;
63499;SDS011;49654;51.142;14.924;2022-08-21T04:02:50;13.52;;;12.20;;
63499;SDS011;49654;51.142;14.924;2022-08-21T04:05:18;14.18;;;12.18;;
63499;SDS011;49654;51.142;14.924;2022-08-21T04:07:53;13.55;;;11.88;;
63499;SDS011;49654;51.142;14.924;2022-08-21T04:10:21;13.70;;;11.70;;
63499;SDS011;49654;51.142;14.924;2022-08-21T04:12:50;13.82;;;12.07;;
63499;SDS011;49654;51.142;14.924;2022-08-21T04:15:18;17.30;;;12.80;;
63499;SDS011;49654;51.142;14.924;2022-08-21T04:17:45;15.35;;;12.27;;
63499;SDS011;49654;51.142;14.924;2022-08-21T04:20:12;14.20;;;12.38;;
63499;SDS011;49654;51.142;14.924;2022-08-21T04:22:39;16.40;;;13.13;;
63499;SDS011;49654;51.142;14.924;2022-08-21T04:25:06;13.88;;;12.38;;
63499;SDS011;49654;51.142;14.924;2022-08-21T04:27:33;16.02;;;12.88;;
63499;SDS011;49654;51.142;14.924;2022-08-21T04:30:02;14.55;;;13.05;;
63499;SDS011;49654;51.142;14.924;2022-08-21T04:32:29;14.55;;;12.98;;
63499;SDS011;49654;51.142;14.924;2022-08-21T04:34:57;16.60;;;12.95;;
63499;SDS011;49654;51.142;14.924;2022-08-21T04:37:25;13.93;;;12.52;;
63499;SDS011;49654;51.142;14.924;2022-08-21T04:39:52;14.68;;;13.18;;
63499;SDS011;49654;51.142;14.924;2022-08-21T04:42:19;14.88;;;12.90;;
63499;SDS011;49654;51.142;14.924;2022-08-21T04:44:47;18.67;;;13.48;;
63499;SDS011;49654;51.142;14.924;2022-08-21T04:47:15;15.18;;;13.60;;
63499;SDS011;49654;51.142;14.924;2022-08-21T04:49:42;14.88;;;13.48;;
63499;SDS011;49654;51.142;14.924;2022-08-21T04:52:10;14.50;;;13.00;;
63499;SDS011;49654;51.142;14.924;2022-08-21T04:54:37;15.38;;;13.88;;
63499;SDS011;49654;51.142;14.924;2022-08-21T04:57:06;15.68;;;13.93;;
63499;SDS011;49654;51.142;14.924;2022-08-21T04:59:37;13.90;;;12.50;;
63499;SDS011;49654;51.142;14.924;2022-08-21T05:02:07;15.32;;;13.73;;
63499;SDS011;49654;51.142;14.924;2022-08-21T05:04:41;15.63;;;13.75;;
63499;SDS011;49654;51.142;14.924;2022-08-21T05:07:11;15.63;;;13.75;;
63499;SDS011;49654;51.142;14.924;2022-08-21T05:09:41;13.88;;;12.48;;
63499;SDS011;49654;51.142;14.924;2022-08-21T05:12:09;14.68;;;13.18;;
63499;SDS011;49654;51.142;14.924;2022-08-21T05:14:36;15.35;;;13.73;;
63499;SDS011;49654;51.142;14.924;2022-08-21T05:17:03;15.27;;;13.23;;
63499;SDS011;49654;51.142;14.924;2022-08-21T05:19:30;16.83;;;14.90;;
63499;SDS011;49654;51.142;14.924;2022-08-21T05:21:59;14.95;;;13.45;;
63499;SDS011;49654;51.142;14.924;2022-08-21T05:24:26;17.38;;;13.95;;
63499;SDS011;49654;51.142;14.924;2022-08-21T05:26:53;15.85;;;12.52;;
63499;SDS011;49654;51.142;14.924;2022-08-21T05:29:20;18.35;;;15.52;;
63499;SDS011;49654;51.142;14.924;2022-08-21T05:31:47;17.88;;;13.82;;
63499;SDS011;49654;51.142;14.924;2022-08-21T05:34:17;14.45;;;13.07;;
63499;SDS011;49654;51.142;14.924;2022-08-21T05:36:46;13.98;;;12.68;;
63499;SDS011;49654;51.142;14.924;2022-08-21T05:39:15;15.93;;;13.32;;
63499;SDS011;49654;51.142;14.924;2022-08-21T05:41:42;14.77;;;13.27;;
63499;SDS011;49654;51.142;14.924;2022-08-21T05:44:09;14.88;;;12.98;;
63499;SDS011;49654;51.142;14.924;2022-08-21T05:46:36;15.48;;;13.88;;
63499;SDS011;49654;51.142;14.924;2022-08-21T05:49:03;16.40;;;14.70;;
63499;SDS011;49654;51.142;14.924;2022-08-21T05:51:30;15.23;;;13.50;;
63499;SDS011;49654;51.142;14.924;2022-08-21T05:53:57;15.82;;;14.07;;
63499;SDS011;49654;51.142;14.924;2022-08-21T05:56:25;15.02;;;13.50;;
63499;SDS011;49654;51.142;14.924;2022-08-21T05:58:52;15.00;;;13.60;;
63499;SDS011;49654;51.142;14.924;2022-08-21T06:01:19;15.85;;;13.73;;
63499;SDS011;49654;51.142;14.924;2022-08-21T06:03:46;14.75;;;13.23;;
63499;SDS011;49654;51.142;14.924;2022-08-21T06:06:13;15.40;;;13.48;;
63499;SDS011;49654;51.142;14.924;2022-08-21T06:08:41;15.82;;;14.18;;
63499;SDS011;49654;51.142;14.924;2022-08-21T06:11:08;15.02;;;13.43;;
63499;SDS011;49654;51.142;14.924;2022-08-21T06:13:37;15.88;;;14.27;;
63499;SDS011;49654;51.142;14.924;2022-08-21T06:16:07;17.65;;;15.77;;
63499;SDS011;49654;51.142;14.924;2022-08-21T06:18:35;17.55;;;13.75;;
63499;SDS011;49654;51.142;14.924;2022-08-21T06:21:03;16.58;;;13.75;;
63499;SDS011;49654;51.142;14.924;2022-08-21T06:23:31;15.20;;;13.45;;
63499;SDS011;49654;51.142;14.924;2022-08-21T06:25:59;14.82;;;12.52;;
63499;SDS011;49654;51.142;14.924;2022-08-21T06:28:26;16.58;;;11.75;;
63499;SDS011;49654;51.142;14.924;2022-08-21T06:30:54;14.52;;;11.88;;
63499;SDS011;49654;51.142;14.924;2022-08-21T06:33:21;11.98;;;10.77;;
63499;SDS011;49654;51.142;14.924;2022-08-21T06:35:49;12.02;;;9.30;;
63499;SDS011;49654;51.142;14.924;2022-08-21T06:38:16;11.32;;;8.95;;
63499;SDS011;49654;51.142;14.924;2022-08-21T06:40:43;9.32;;;8.13;;
63499;SDS011;49654;51.142;14.924;2022-08-21T06:43:11;11.77;;;7.90;;
63499;SDS011;49654;51.142;14.924;2022-08-21T06:45:40;13.02;;;7.50;;
63499;SDS011;49654;51.142;14.924;2022-08-21T06:48:09;12.40;;;8.15;;
63499;SDS011;49654;51.142;14.924;2022-08-21T06:50:37;13.43;;;8.30;;
63499;SDS011;49654;51.142;14.924;2022-08-21T06:53:04;8.70;;;7.80;;
63499;SDS011;49654;51.142;14.924;2022-08-21T06:55:34;13.32;;;8.85;;
63499;SDS011;49654;51.142;14.924;2022-08-21T06:58:01;11.52;;;7.32;;
63499;SDS011;49654;51.142;14.924;2022-08-21T07:00:28;9.18;;;8.25;;
63499;SDS011;49654;51.142;14.924;2022-08-21T07:02:56;9.60;;;8.30;;
63499;SDS011;49654;51.142;14.924;2022-08-21T07:05:26;8.90;;;8.00;;
63499;SDS011;49654;51.142;14.924;2022-08-21T07:07:54;10.00;;;8.43;;
63499;SDS011;49654;51.142;14.924;2022-08-21T07:10:21;9.85;;;8.00;;
63499;SDS011;49654;51.142;14.924;2022-08-21T07:12:48;9.95;;;8.20;;
63499;SDS011;49654;51.142;14.924;2022-08-21T07:15:15;10.60;;;8.63;;
63499;SDS011;49654;51.142;14.924;2022-08-21T07:17:43;8.85;;;8.00;;
63499;SDS011;49654;51.142;14.924;2022-08-21T07:20:10;10.20;;;8.95;;
63499;SDS011;49654;51.142;14.924;2022-08-21T07:22:38;10.20;;;8.55;;
63499;SDS011;49654;51.142;14.924;2022-08-21T07:25:07;11.98;;;9.90;;
63499;SDS011;49654;51.142;14.924;2022-08-21T07:27:34;11.15;;;9.95;;
63499;SDS011;49654;51.142;14.924;2022-08-21T07:30:01;9.93;;;8.93;;
63499;SDS011;49654;51.142;14.924;2022-08-21T07:32:28;10.75;;;9.65;;
63499;SDS011;49654;51.142;14.924;2022-08-21T07:34:55;11.63;;;9.63;;
63499;SDS011;49654;51.142;14.924;2022-08-21T07:37:22;11.75;;;8.85;;
63499;SDS011;49654;51.142;14.924;2022-08-21T07:39:51;13.07;;;9.23;;
63499;SDS011;49654;51.142;14.924;2022-08-21T07:42:17;9.63;;;8.63;;
63499;SDS011;49654;51.142;14.924;2022-08-21T07:44:44;10.65;;;8.73;;
63499;SDS011;49654;51.142;14.924;2022-08-21T07:47:11;9.88;;;7.63;;
63499;SDS011;49654;51.142;14.924;2022-08-21T07:49:38;11.65;;;9.07;;
63499;SDS011;49654;51.142;14.924;2022-08-21T07:52:05;9.68;;;7.90;;
63499;SDS011;49654;51.142;14.924;2022-08-21T07:54:32;8.98;;;7.53;;
63499;SDS011;49654;51.142;14.924;2022-08-21T07:57:01;10.23;;;8.27;;
63499;SDS011;49654;51.142;14.924;2022-08-21T07:59:28;9.05;;;7.60;;
63499;SDS011;49654;51.142;14.924;2022-08-21T08:01:55;10.15;;;6.75;;
63499;SDS011;49654;51.142;14.924;2022-08-21T08:04:22;9.63;;;6.97;;
63499;SDS011;49654;51.142;14.924;2022-08-21T08:06:49;8.27;;;6.50;;
63499;SDS011;49654;51.142;14.924;2022-08-21T08:09:16;9.40;;;6.53;;
63499;SDS011;49654;51.142;14.924;2022-08-21T08:11:43;13.48;;;7.57;;
63499;SDS011;49654;51.142;14.924;2022-08-21T08:14:12;7.82;;;6.15;;
63499;SDS011;49654;51.142;14.924;2022-08-21T08:16:39;9.32;;;5.90;;
63499;SDS011;49654;51.142;14.924;2022-08-21T08:19:05;7.75;;;5.72;;
63499;SDS011;49654;51.142;14.924;2022-08-21T08:21:32;8.32;;;5.80;;
63499;SDS011;49654;51.142;14.924;2022-08-21T08:24:01;9.90;;;6.55;;
63499;SDS011;49654;51.142;14.924;2022-08-21T08:26:28;8.77;;;6.13;;
63499;SDS011;49654;51.142;14.924;2022-08-21T08:28:55;12.57;;;6.45;;
63499;SDS011;49654;51.142;14.924;2022-08-21T08:31:23;9.23;;;6.07;;
63499;SDS011;49654;51.142;14.924;2022-08-21T08:33:51;8.15;;;5.80;;
63499;SDS011;49654;51.142;14.924;2022-08-21T08:36:18;8.32;;;6.22;;
63499;SDS011;49654;51.142;14.924;2022-08-21T08:38:45;7.90;;;6.20;;
63499;SDS011;49654;51.142;14.924;2022-08-21T08:41:13;10.98;;;6.28;;
63499;SDS011;49654;51.142;14.924;2022-08-21T08:43:42;8.32;;;6.50;;
63499;SDS011;49654;51.142;14.924;2022-08-21T08:46:24;9.80;;;6.40;;
63499;SDS011;49654;51.142;14.924;2022-08-21T08:48:59;11.60;;;6.20;;
63499;SDS011;49654;51.142;14.924;2022-08-21T08:51:32;9.70;;;6.40;;
63499;SDS011;49654;51.142;14.924;2022-08-21T08:54:07;8.50;;;5.65;;
63499;SDS011;49654;51.142;14.924;2022-08-21T08:56:38;8.93;;;6.38;;
63499;SDS011;49654;51.142;14.924;2022-08-21T08:59:07;9.32;;;6.35;;
63499;SDS011;49654;51.142;14.924;2022-08-21T09:01:39;7.75;;;6.60;;
63499;SDS011;49654;51.142;14.924;2022-08-21T09:04:07;9.02;;;6.20;;
63499;SDS011;49654;51.142;14.924;2022-08-21T09:06:42;8.73;;;6.90;;
63499;SDS011;49654;51.142;14.924;2022-08-21T09:09:25;11.88;;;7.50;;
63499;SDS011;49654;51.142;14.924;2022-08-21T09:12:04;8.43;;;7.55;;
63499;SDS011;49654;51.142;14.924;2022-08-21T09:14:44;10.77;;;8.40;;
63499;SDS011;49654;51.142;14.924;2022-08-21T09:17:39;13.85;;;9.77;;
63499;SDS011;49654;51.142;14.924;2022-08-21T09:20:27;12.43;;;9.43;;
63499;SDS011;49654;51.142;14.924;2022-08-21T09:23:07;13.50;;;9.98;;
63499;SDS011;49654;51.142;14.924;2022-08-21T09:25:42;10.05;;;8.43;;
63499;SDS011;49654;51.142;14.924;2022-08-21T09:28:12;12.05;;;8.40;;
63499;SDS011;49654;51.142;14.924;2022-08-21T09:30:40;10.63;;;7.05;;
63499;SDS011;49654;51.142;14.924;2022-08-21T09:33:11;11.63;;;6.80;;
63499;SDS011;49654;51.142;14.924;2022-08-21T09:35:47;8.52;;;6.13;;
63499;SDS011;49654;51.142;14.924;2022-08-21T09:38:23;8.63;;;6.43;;
63499;SDS011;49654;51.142;14.924;2022-08-21T09:40:55;10.23;;;6.15;;
63499;SDS011;49654;51.142;14.924;2022-08-21T09:43:24;9.40;;;6.88;;
63499;SDS011;49654;51.142;14.924;2022-08-21T09:46:00;7.43;;;5.07;;
63499;SDS011;49654;51.142;14.924;2022-08-21T09:48:40;6.35;;;5.35;;
63499;SDS011;49654;51.142;14.924;2022-08-21T09:51:11;8.70;;;4.70;;
63499;SDS011;49654;51.142;14.924;2022-08-21T09:53:43;7.18;;;5.03;;
63499;SDS011;49654;51.142;14.924;2022-08-21T09:56:17;6.65;;;4.80;;
63499;SDS011;49654;51.142;14.924;2022-08-21T09:59:13;7.90;;;5.70;;
63499;SDS011;49654;51.142;14.924;2022-08-21T10:01:43;8.13;;;5.53;;
63499;SDS011;49654;51.142;14.924;2022-08-21T10:04:12;8.93;;;5.72;;
63499;SDS011;49654;51.142;14.924;2022-08-21T10:06:39;7.18;;;5.60;;
63499;SDS011;49654;51.142;14.924;2022-08-21T10:09:07;9.35;;;4.80;;
63499;SDS011;49654;51.142;14.924;2022-08-21T10:11:37;6.45;;;4.72;;
63499;SDS011;49654;51.142;14.924;2022-08-21T10:14:09;7.20;;;5.43;;
63499;SDS011;49654;51.142;14.924;2022-08-21T10:16:49;8.13;;;5.18;;
63499;SDS011;49654;51.142;14.924;2022-08-21T10:19:31;9.23;;;5.57;;
63499;SDS011;49654;51.142;14.924;2022-08-21T10:22:07;8.23;;;5.50;;
63499;SDS011;49654;51.142;14.924;2022-08-21T10:24:45;7.60;;;5.47;;
63499;SDS011;49654;51.142;14.924;2022-08-21T10:27:22;10.10;;;5.60;;
63499;SDS011;49654;51.142;14.924;2022-08-21T10:30:02;6.93;;;4.95;;
63499;SDS011;49654;51.142;14.924;2022-08-21T10:32:52;7.85;;;4.97;;
63499;SDS011;49654;51.142;14.924;2022-08-21T10:35:28;5.95;;;4.82;;
63499;SDS011;49654;51.142;14.924;2022-08-21T10:38:01;10.95;;;4.97;;
63499;SDS011;49654;51.142;14.924;2022-08-21T10:40:49;7.00;;;4.60;;
63499;SDS011;49654;51.142;14.924;2022-08-21T10:43:24;6.18;;;4.78;;
63499;SDS011;49654;51.142;14.924;2022-08-21T10:46:02;5.25;;;4.28;;
63499;SDS011;49654;51.142;14.924;2022-08-21T10:48:36;6.10;;;3.97;;
63499;SDS011;49654;51.142;14.924;2022-08-21T10:51:12;8.65;;;4.55;;
63499;SDS011;49654;51.142;14.924;2022-08-21T10:53:49;7.30;;;4.40;;
63499;SDS011;49654;51.142;14.924;2022-08-21T10:56:26;7.15;;;4.63;;
63499;SDS011;49654;51.142;14.924;2022-08-21T10:59:01;7.90;;;4.85;;
63499;SDS011;49654;51.142;14.924;2022-08-21T11:01:35;6.03;;;4.10;;
63499;SDS011;49654;51.142;14.924;2022-08-21T11:04:11;7.68;;;4.00;;
63499;SDS011;49654;51.142;14.924;2022-08-21T11:06:44;6.70;;;3.70;;
63499;SDS011;49654;51.142;14.924;2022-08-21T11:09:18;5.63;;;3.53;;
63499;SDS011;49654;51.142;14.924;2022-08-21T11:11:47;7.07;;;3.80;;
63499;SDS011;49654;51.142;14.924;2022-08-21T11:14:21;6.38;;;3.58;;
63499;SDS011;49654;51.142;14.924;2022-08-21T11:16:58;7.68;;;3.50;;
63499;SDS011;49654;51.142;14.924;2022-08-21T11:19:30;6.47;;;3.22;;
63499;SDS011;49654;51.142;14.924;2022-08-21T11:22:04;5.43;;;3.15;;
63499;SDS011;49654;51.142;14.924;2022-08-21T11:24:40;4.90;;;3.05;;
63499;SDS011;49654;51.142;14.924;2022-08-21T11:27:16;10.35;;;3.28;;
63499;SDS011;49654;51.142;14.924;2022-08-21T11:29:48;4.93;;;2.97;;
63499;SDS011;49654;51.142;14.924;2022-08-21T11:32:24;5.57;;;3.00;;
63499;SDS011;49654;51.142;14.924;2022-08-21T11:35:03;5.97;;;2.85;;
63499;SDS011;49654;51.142;14.924;2022-08-21T11:37:44;6.05;;;2.97;;
63499;SDS011;49654;51.142;14.924;2022-08-21T11:40:19;6.70;;;3.03;;
63499;SDS011;49654;51.142;14.924;2022-08-21T11:42:59;6.50;;;2.80;;
63499;SDS011;49654;51.142;14.924;2022-08-21T11:45:39;6.15;;;2.90;;
63499;SDS011;49654;51.142;14.924;2022-08-21T11:48:16;6.13;;;2.85;;
63499;SDS011;49654;51.142;14.924;2022-08-21T11:50:55;8.80;;;3.80;;
63499;SDS011;49654;51.142;14.924;2022-08-21T11:53:26;3.28;;;2.28;;
63499;SDS011;49654;51.142;14.924;2022-08-21T11:56:02;5.28;;;2.47;;
63499;SDS011;49654;51.142;14.924;2022-08-21T11:58:32;7.60;;;2.58;;
63499;SDS011;49654;51.142;14.924;2022-08-21T12:01:05;4.45;;;2.40;;
63499;SDS011;49654;51.142;14.924;2022-08-21T12:03:36;5.32;;;2.60;;
63499;SDS011;49654;51.142;14.924;2022-08-21T12:06:07;4.65;;;2.47;;
63499;SDS011;49654;51.142;14.924;2022-08-21T12:08:37;6.95;;;2.63;;
63499;SDS011;49654;51.142;14.924;2022-08-21T12:11:07;5.45;;;2.47;;
63499;SDS011;49654;51.142;14.924;2022-08-21T12:13:37;5.38;;;2.63;;
63499;SDS011;49654;51.142;14.924;2022-08-21T12:16:06;6.18;;;2.65;;
63499;SDS011;49654;51.142;14.924;2022-08-21T12:18:34;6.22;;;3.10;;
63499;SDS011;49654;51.142;14.924;2022-08-21T12:21:04;7.38;;;2.90;;
63499;SDS011;49654;51.142;14.924;2022-08-21T12:23:47;5.35;;;2.80;;
63499;SDS011;49654;51.142;14.924;2022-08-21T12:29:11;6.97;;;3.00;;
63499;SDS011;49654;51.142;14.924;2022-08-21T12:31:47;4.93;;;2.60;;
63499;SDS011;49654;51.142;14.924;2022-08-21T12:34:17;8.68;;;2.80;;
63499;SDS011;49654;51.142;14.924;2022-08-21T12:36:46;5.43;;;2.60;;
63499;SDS011;49654;51.142;14.924;2022-08-21T12:39:22;5.13;;;2.50;;
63499;SDS011;49654;51.142;14.924;2022-08-21T12:41:55;7.22;;;3.00;;
63499;SDS011;49654;51.142;14.924;2022-08-21T12:44:27;4.50;;;2.78;;
63499;SDS011;49654;51.142;14.924;2022-08-21T12:46:59;4.78;;;2.70;;
63499;SDS011;49654;51.142;14.924;2022-08-21T12:49:31;9.50;;;3.20;;
63499;SDS011;49654;51.142;14.924;2022-08-21T12:52:02;6.68;;;3.15;;
63499;SDS011;49654;51.142;14.924;2022-08-21T12:54:39;5.03;;;2.70;;
63499;SDS011;49654;51.142;14.924;2022-08-21T12:57:16;5.50;;;2.67;;
63499;SDS011;49654;51.142;14.924;2022-08-21T12:59:45;5.88;;;2.60;;
63499;SDS011;49654;51.142;14.924;2022-08-21T13:02:15;4.68;;;2.58;;
63499;SDS011;49654;51.142;14.924;2022-08-21T13:04:45;5.07;;;2.75;;
63499;SDS011;49654;51.142;14.924;2022-08-21T13:07:16;5.70;;;2.40;;
63499;SDS011;49654;51.142;14.924;2022-08-21T13:09:51;4.72;;;2.55;;
63499;SDS011;49654;51.142;14.924;2022-08-21T13:12:20;5.68;;;2.50;;
63499;SDS011;49654;51.142;14.924;2022-08-21T13:14:49;6.40;;;2.80;;
63499;SDS011;49654;51.142;14.924;2022-08-21T13:17:19;3.97;;;2.10;;
63499;SDS011;49654;51.142;14.924;2022-08-21T13:19:54;6.70;;;2.53;;
63499;SDS011;49654;51.142;14.924;2022-08-21T13:22:23;4.45;;;2.30;;
63499;SDS011;49654;51.142;14.924;2022-08-21T13:24:52;5.05;;;2.40;;
63499;SDS011;49654;51.142;14.924;2022-08-21T13:27:21;4.25;;;1.98;;
63499;SDS011;49654;51.142;14.924;2022-08-21T13:30:04;4.72;;;2.20;;
63499;SDS011;49654;51.142;14.924;2022-08-21T13:32:35;4.85;;;2.28;;
63499;SDS011;49654;51.142;14.924;2022-08-21T13:35:13;4.18;;;2.13;;
63499;SDS011;49654;51.142;14.924;2022-08-21T13:37:44;5.10;;;2.10;;
63499;SDS011;49654;51.142;14.924;2022-08-21T13:40:15;4.13;;;2.10;;
63499;SDS011;49654;51.142;14.924;2022-08-21T13:42:46;4.53;;;2.25;;
63499;SDS011;49654;51.142;14.924;2022-08-21T13:45:16;4.57;;;2.38;;
63499;SDS011;49654;51.142;14.924;2022-08-21T13:47:47;5.40;;;2.22;;
63499;SDS011;49654;51.142;14.924;2022-08-21T13:50:15;4.78;;;2.30;;
63499;SDS011;49654;51.142;14.924;2022-08-21T13:52:46;5.85;;;2.03;;
63499;SDS011;49654;51.142;14.924;2022-08-21T13:55:18;5.13;;;2.00;;
63499;SDS011;49654;51.142;14.924;2022-08-21T13:57:45;4.35;;;2.10;;
63499;SDS011;49654;51.142;14.924;2022-08-21T14:00:13;3.53;;;2.00;;
63499;SDS011;49654;51.142;14.924;2022-08-21T14:02:43;5.78;;;2.10;;
63499;SDS011;49654;51.142;14.924;2022-08-21T14:05:15;3.05;;;1.92;;
63499;SDS011;49654;51.142;14.924;2022-08-21T14:07:46;4.60;;;2.28;;
63499;SDS011;49654;51.142;14.924;2022-08-21T14:10:15;3.75;;;2.10;;
63499;SDS011;49654;51.142;14.924;2022-08-21T14:12:46;4.13;;;1.80;;
63499;SDS011;49654;51.142;14.924;2022-08-21T14:15:17;3.55;;;1.88;;
63499;SDS011;49654;51.142;14.924;2022-08-21T14:17:48;3.15;;;1.90;;
63499;SDS011;49654;51.142;14.924;2022-08-21T14:20:25;2.70;;;1.70;;
63499;SDS011;49654;51.142;14.924;2022-08-21T14:22:54;5.72;;;2.15;;
63499;SDS011;49654;51.142;14.924;2022-08-21T14:25:29;3.85;;;1.90;;
63499;SDS011;49654;51.142;14.924;2022-08-21T14:28:04;5.97;;;1.95;;
63499;SDS011;49654;51.142;14.924;2022-08-21T14:30:42;6.25;;;2.17;;
63499;SDS011;49654;51.142;14.924;2022-08-21T14:33:11;5.35;;;2.22;;
63499;SDS011;49654;51.142;14.924;2022-08-21T14:35:49;4.70;;;2.20;;
63499;SDS011;49654;51.142;14.924;2022-08-21T14:38:17;3.58;;;1.85;;
63499;SDS011;49654;51.142;14.924;2022-08-21T14:40:48;4.13;;;1.73;;